Temp: 10.7°C   Baro: 992.5mb
  Wind: 2.0mph   Dir: SE (131°)
  Rain: 1.8mm (4.6mm/hr)
  Solar: 0W/m2  Hum: 80%
 
Bath Spa Weather Station Historical Data
Daily Summary for August 14, 2019 Units:  Both    English   Metric
Daily Weekly Monthly Yearly Custom
  High: Low: Average:
Temperature: 54.2 °F /  12.3 °C 48 °F /  8.9 °C 51.5 °F /  10.8 °C
Dew Point: 52.3 °F /  11.3 °C 46.6 °F /  8.1 °C 49.8 °F /  9.9 °C
Humidity: 95% 89% 94%
Wind Speed: 6.9mph /  11.1km/h - 2.1mph /  3.4km/h
Wind Gust: 16mph /  25.7km/h - -
Wind- - SSE
Pressure: 29.82 in /  1009.7 hPa 29.54 in /  1000.2 hPa -
Precipitation: 0.24 in /  6.1 mm    
Historical Graphs
 
 
Tabular Data for August 14, 2019
Time Temperature Dew Point Pressure Wind Wind Speed Wind Gust Humidity Rainfall Rate (Hourly) solar
00:04 48.7 °F /  9.3 °C 46.8 °F /  8.2 °C 29.82in /  1009.7hPa West 0.4mph /  0.6km/h 3mph /  4.8km/h 93% 0.00in /  0mm 0 W/m2
00:09 48.7 °F /  9.3 °C 46.8 °F /  8.2 °C 29.82in /  1009.7hPa West 0.5mph /  0.8km/h 2mph /  3.2km/h 93% 0.00in /  0mm 0 W/m2
00:14 48.7 °F /  9.3 °C 46.8 °F /  8.2 °C 29.82in /  1009.7hPa West 0.6mph /  1km/h 3mph /  4.8km/h 93% 0.00in /  0mm 0 W/m2
00:19 48.7 °F /  9.3 °C 46.8 °F /  8.2 °C 29.82in /  1009.7hPa West 0.1mph /  0.2km/h 1mph /  1.6km/h 93% 0.00in /  0mm 0 W/m2
00:24 48.7 °F /  9.3 °C 46.8 °F /  8.2 °C 29.82in /  1009.7hPa West 0.1mph /  0.2km/h 1mph /  1.6km/h 93% 0.00in /  0mm 0 W/m2
00:29 48.6 °F /  9.2 °C 46.7 °F /  8.2 °C 29.82in /  1009.7hPa West 0.1mph /  0.2km/h 1mph /  1.6km/h 93% 0.00in /  0mm 0 W/m2
00:34 48.6 °F /  9.2 °C 46.9 °F /  8.3 °C 29.82in /  1009.7hPa Calm   1mph /  1.6km/h 93.8% 0.00in /  0mm 0 W/m2
00:39 48.6 °F /  9.2 °C 46.9 °F /  8.3 °C 29.82in /  1009.7hPa Calm     94% 0.00in /  0mm 0 W/m2
00:44 48.6 °F /  9.2 °C 46.9 °F /  8.3 °C 29.82in /  1009.7hPa Calm     94% 0.00in /  0mm 0 W/m2
00:49 48.6 °F /  9.2 °C 46.9 °F /  8.3 °C 29.82in /  1009.7hPa West 0.2mph /  0.3km/h 1mph /  1.6km/h 94% 0.00in /  0mm 0 W/m2
00:54 48.6 °F /  9.2 °C 46.9 °F /  8.3 °C 29.82in /  1009.7hPa Calm   1mph /  1.6km/h 94% 0.00in /  0mm 0 W/m2
00:59 48.7 °F /  9.3 °C 47 °F /  8.3 °C 29.81in /  1009.4hPa Calm   1mph /  1.6km/h 94% 0.00in /  0mm 0 W/m2
01:04 48.7 °F /  9.3 °C 47.1 °F /  8.4 °C 29.81in /  1009.4hPa Calm     94% 0.00in /  0mm 0 W/m2
01:09 49 °F /  9.4 °C 47.4 °F /  8.6 °C 29.81in /  1009.4hPa West 0.1mph /  0.2km/h 1mph /  1.6km/h 94% 0.00in /  0mm 0 W/m2
01:14 49.4 °F /  9.7 °C 47.7 °F /  8.7 °C 29.81in /  1009.4hPa Calm   1mph /  1.6km/h 94% 0.00in /  0mm 0 W/m2
01:19 49.5 °F /  9.7 °C 47.8 °F /  8.8 °C 29.81in /  1009.4hPa West 0.1mph /  0.2km/h 1mph /  1.6km/h 94% 0.00in /  0mm 0 W/m2
01:24 49.5 °F /  9.7 °C 47.8 °F /  8.8 °C 29.82in /  1009.7hPa Calm     94% 0.00in /  0mm 0 W/m2
01:29 49.3 °F /  9.6 °C 47.7 °F /  8.7 °C 29.82in /  1009.7hPa Calm     94% 0.00in /  0mm 0 W/m2
01:34 49.3 °F /  9.6 °C 47.7 °F /  8.7 °C 29.82in /  1009.7hPa Calm     94% 0.00in /  0mm 0 W/m2
01:39 49.2 °F /  9.6 °C 47.6 °F /  8.7 °C 29.81in /  1009.4hPa Calm     94% 0.00in /  0mm 0 W/m2
01:44 49 °F /  9.4 °C 47.4 °F /  8.6 °C 29.81in /  1009.4hPa Calm     94% 0.00in /  0mm 0 W/m2
01:49 48.8 °F /  9.3 °C 47.2 °F /  8.4 °C 29.81in /  1009.4hPa Calm     94% 0.00in /  0mm 0 W/m2
01:54 48.7 °F /  9.3 °C 47.1 °F /  8.4 °C 29.81in /  1009.4hPa Calm     94% 0.00in /  0mm 0 W/m2
01:59 48.7 °F /  9.3 °C 47.1 °F /  8.4 °C 29.81in /  1009.4hPa Calm     94% 0.00in /  0mm 0 W/m2
02:04 48.6 °F /  9.2 °C 47 °F /  8.3 °C 29.81in /  1009.4hPa Calm     94% 0.00in /  0mm 0 W/m2
02:09 48.6 °F /  9.2 °C 46.9 °F /  8.3 °C 29.81in /  1009.4hPa Calm     94% 0.00in /  0mm 0 W/m2
02:14 48.5 °F /  9.2 °C 46.8 °F /  8.2 °C 29.81in /  1009.4hPa Calm     94% 0.00in /  0mm 0 W/m2
02:19 48.4 °F /  9.1 °C 46.8 °F /  8.2 °C 29.81in /  1009.4hPa Calm     94% 0.00in /  0mm 0 W/m2
02:24 48.4 °F /  9.1 °C 46.8 °F /  8.2 °C 29.81in /  1009.4hPa Calm     94% 0.00in /  0mm 0 W/m2
02:29 48.4 °F /  9.1 °C 46.8 °F /  8.2 °C 29.81in /  1009.4hPa West 0.2mph /  0.3km/h 2mph /  3.2km/h 94% 0.00in /  0mm 0 W/m2
02:34 48.5 °F /  9.2 °C 46.8 °F /  8.2 °C 29.80in /  1009hPa West 0.4mph /  0.6km/h 3mph /  4.8km/h 94% 0.00in /  0mm 0 W/m2
02:39 48.4 °F /  9.1 °C 46.8 °F /  8.2 °C 29.80in /  1009hPa Calm     94% 0.00in /  0mm 0 W/m2
02:44 48.4 °F /  9.1 °C 46.8 °F /  8.2 °C 29.80in /  1009hPa West 0.1mph /  0.2km/h 1mph /  1.6km/h 94% 0.00in /  0mm 0 W/m2
02:49 48.4 °F /  9.1 °C 46.8 °F /  8.2 °C 29.80in /  1009hPa Calm   1mph /  1.6km/h 94% 0.00in /  0mm 0 W/m2
02:54 48.3 °F /  9.1 °C 46.7 °F /  8.2 °C 29.80in /  1009hPa Calm   1mph /  1.6km/h 94% 0.00in /  0mm 0 W/m2
02:59 48.2 °F /  9 °C 46.6 °F /  8.1 °C 29.80in /  1009hPa Calm     94% 0.00in /  0mm 0 W/m2
03:04 48.2 °F /  9 °C 46.7 °F /  8.2 °C 29.80in /  1009hPa Calm     94.3% 0.00in /  0mm 0 W/m2
03:09 48.2 °F /  9 °C 46.7 °F /  8.2 °C 29.80in /  1009hPa Calm     94.7% 0.00in /  0mm 0 W/m2
03:14 48.1 °F /  8.9 °C 46.7 °F /  8.2 °C 29.80in /  1009hPa Calm     95% 0.00in /  0mm 0 W/m2
03:19 48.2 °F /  9 °C 46.8 °F /  8.2 °C 29.80in /  1009hPa Calm     95% 0.00in /  0mm 0 W/m2
03:24 48.4 °F /  9.1 °C 46.9 °F /  8.3 °C 29.80in /  1009hPa Calm     95% 0.00in /  0mm 0 W/m2
03:29 48.4 °F /  9.1 °C 46.9 °F /  8.3 °C 29.80in /  1009hPa Calm     95% 0.00in /  0mm 0 W/m2
03:34 48.3 °F /  9.1 °C 46.9 °F /  8.3 °C 29.79in /  1008.7hPa Calm     95% 0.00in /  0mm 0 W/m2
03:39 48.2 °F /  9 °C 46.8 °F /  8.2 °C 29.80in /  1009hPa Calm     95% 0.00in /  0mm 0 W/m2
03:44 48.2 °F /  9 °C 46.8 °F /  8.2 °C 29.80in /  1009hPa Calm     95% 0.00in /  0mm 0 W/m2
03:49 48.2 °F /  9 °C 46.8 °F /  8.2 °C 29.79in /  1008.7hPa Calm     95% 0.00in /  0mm 0 W/m2
03:54 48.2 °F /  9 °C 46.8 °F /  8.2 °C 29.79in /  1008.7hPa Calm     95% 0.00in /  0mm 0 W/m2
03:59 48.2 °F /  9 °C 46.8 °F /  8.2 °C 29.79in /  1008.7hPa Calm     95% 0.00in /  0mm 0 W/m2
04:04 48.4 °F /  9.1 °C 46.9 °F /  8.3 °C 29.79in /  1008.7hPa Calm     95% 0.00in /  0mm 0 W/m2
04:09 48.4 °F /  9.1 °C 46.9 °F /  8.3 °C 29.79in /  1008.7hPa Calm     95% 0.00in /  0mm 0 W/m2
04:14 48.4 °F /  9.1 °C 46.9 °F /  8.3 °C 29.80in /  1009hPa Calm     95% 0.00in /  0mm 0 W/m2
04:19 48.3 °F /  9.1 °C 46.9 °F /  8.3 °C 29.80in /  1009hPa Calm     95% 0.00in /  0mm 0 W/m2
04:24 48.2 °F /  9 °C 46.8 °F /  8.2 °C 29.80in /  1009hPa Calm     95% 0.00in /  0mm 0 W/m2
04:29 48.2 °F /  9 °C 46.8 °F /  8.2 °C 29.80in /  1009hPa Calm     95% 0.00in /  0mm 0 W/m2
04:34 48.1 °F /  8.9 °C 46.7 °F /  8.2 °C 29.80in /  1009hPa Calm     95% 0.00in /  0mm 0 W/m2
04:36 48 °F /  8.9 °C 46.6 °F /  8.1 °C 29.80in /  1009hPa Calm     95% 0.00in /  0mm 0 W/m2
04:49 48.4 °F /  9.1 °C 46.9 °F /  8.3 °C 29.79in /  1008.7hPa Calm     95% 0.00in /  0mm 0 W/m2
04:54 48.4 °F /  9.1 °C 46.9 °F /  8.3 °C 29.79in /  1008.7hPa Calm     95% 0.00in /  0mm 0 W/m2
04:59 48.4 °F /  9.1 °C 46.9 °F /  8.3 °C 29.79in /  1008.7hPa West 0.1mph /  0.2km/h 1mph /  1.6km/h 95% 0.00in /  0mm 0 W/m2
05:04 48.4 °F /  9.1 °C 46.9 °F /  8.3 °C 29.79in /  1008.7hPa Calm     95% 0.00in /  0mm 0 W/m2
05:07 48.3 °F /  9.1 °C 46.9 °F /  8.3 °C 29.79in /  1008.7hPa Calm     95% 0.00in /  0mm 0 W/m2
05:24 48.2 °F /  9 °C 46.8 °F /  8.2 °C 29.79in /  1008.7hPa Calm     95% 0.00in /  0mm 0 W/m2
05:29 48.2 °F /  9 °C 46.8 °F /  8.2 °C 29.79in /  1008.7hPa Calm     95% 0.00in /  0mm 0 W/m2
05:34 48.4 °F /  9.1 °C 46.9 °F /  8.3 °C 29.78in /  1008.4hPa West 0.3mph /  0.5km/h 4mph /  6.4km/h 95% 0.00in /  0mm 0 W/m2
05:38 48.8 °F /  9.3 °C 47.4 °F /  8.6 °C 29.78in /  1008.4hPa West 0.1mph /  0.2km/h 2mph /  3.2km/h 95% 0.00in /  0mm 0 W/m2
05:54 48.9 °F /  9.4 °C 47.5 °F /  8.6 °C 29.78in /  1008.4hPa Calm     95% 0.00in /  0mm 0 W/m2
05:59 48.9 °F /  9.4 °C 47.5 °F /  8.6 °C 29.78in /  1008.4hPa Calm     95% 0.00in /  0mm 0 W/m2
06:04 49 °F /  9.4 °C 47.6 °F /  8.7 °C 29.78in /  1008.4hPa Calm     95% 0.00in /  0mm 0 W/m2
06:09 49.2 °F /  9.6 °C 47.7 °F /  8.7 °C 29.78in /  1008.4hPa Calm   1mph /  1.6km/h 95% 0.00in /  0mm 0 W/m2
06:24 49.7 °F /  9.8 °C 48.3 °F /  9.1 °C 29.76in /  1007.7hPa SSW 1.6mph /  2.6km/h 5mph /  8km/h 95% 0.00in /  0mm 0 W/m2
06:29 50.1 °F /  10.1 °C 48.7 °F /  9.3 °C 29.76in /  1007.7hPa SE 2.9mph /  4.7km/h 7mph /  11.3km/h 95% 0.00in /  0mm 0 W/m2
06:34 50.5 °F /  10.3 °C 49.1 °F /  9.5 °C 29.76in /  1007.7hPa ESE 2.7mph /  4.3km/h 7mph /  11.3km/h 95% 0.00in /  0mm 0 W/m2
06:39 50.7 °F /  10.4 °C 49.3 °F /  9.6 °C 29.76in /  1007.7hPa ESE 2mph /  3.2km/h 6mph /  9.7km/h 95% 0.00in /  0mm 0 W/m2
06:40 50.7 °F /  10.4 °C 49.3 °F /  9.6 °C 29.76in /  1007.7hPa ESE 1.6mph /  2.6km/h 5mph /  8km/h 95% 0.00in /  0mm 0 W/m2
06:54 50.7 °F /  10.4 °C 49.3 °F /  9.6 °C 29.76in /  1007.7hPa ESE 1.5mph /  2.4km/h 4mph /  6.4km/h 95% 0.00in /  0mm 0 W/m2
06:59 50.7 °F /  10.4 °C 49.3 °F /  9.6 °C 29.76in /  1007.7hPa ESE 1.1mph /  1.8km/h 4mph /  6.4km/h 95% 0.00in /  0mm 0 W/m2
07:04 50.7 °F /  10.4 °C 49.3 °F /  9.6 °C 29.75in /  1007.3hPa ESE 1.6mph /  2.6km/h 5mph /  8km/h 95% 0.00in /  0mm 0 W/m2
07:09 51 °F /  10.6 °C 49.6 °F /  9.8 °C 29.75in /  1007.3hPa ESE 1mph /  1.6km/h 5mph /  8km/h 95% 0.00in /  0mm 0 W/m2
07:11 51.4 °F /  10.8 °C 50 °F /  10 °C 29.75in /  1007.3hPa ESE 1.2mph /  1.9km/h 3mph /  4.8km/h 95% 0.00in /  0mm 0 W/m2
07:24 51.4 °F /  10.8 °C 50 °F /  10 °C 29.75in /  1007.3hPa ESE 0.9mph /  1.4km/h 8mph /  12.9km/h 95% 0.00in /  0mm 0 W/m2
07:29 51.3 °F /  10.7 °C 49.9 °F /  9.9 °C 29.75in /  1007.3hPa ESE 0.8mph /  1.3km/h 8mph /  12.9km/h 95% 0.00in /  0mm 0 W/m2
07:34 51.3 °F /  10.7 °C 49.9 °F /  9.9 °C 29.75in /  1007.3hPa ESE 1.7mph /  2.7km/h 4mph /  6.4km/h 95% 0.00in /  0mm 0 W/m2
07:39 51.4 °F /  10.8 °C 50 °F /  10 °C 29.75in /  1007.3hPa ESE 1.4mph /  2.3km/h 7mph /  11.3km/h 95% 0.00in /  0mm 5 W/m2
07:42 51.4 °F /  10.8 °C 50 °F /  10 °C 29.75in /  1007.3hPa ESE 1.1mph /  1.8km/h 4mph /  6.4km/h 95% 0.00in /  0mm 5 W/m2
07:59 51.5 °F /  10.8 °C 50.1 °F /  10.1 °C 29.75in /  1007.3hPa ESE 1.3mph /  2.1km/h 5mph /  8km/h 95% 0.00in /  0mm 18 W/m2
08:04 51.6 °F /  10.9 °C 50.2 °F /  10.1 °C 29.75in /  1007.3hPa ESE 1.7mph /  2.7km/h 5mph /  8km/h 95% 0.00in /  0mm 21 W/m2
08:09 51.7 °F /  10.9 °C 50.3 °F /  10.2 °C 29.75in /  1007.3hPa ESE 2.3mph /  3.7km/h 7mph /  11.3km/h 95% 0.00in /  0mm 25 W/m2
08:14 51.9 °F /  11.1 °C 50.5 °F /  10.3 °C 29.75in /  1007.3hPa ESE 2.2mph /  3.5km/h 8mph /  12.9km/h 95% 0.00in /  0mm 28 W/m2
08:19 52 °F /  11.1 °C 50.5 °F /  10.3 °C 29.74in /  1007hPa ESE 1.3mph /  2.1km/h 5mph /  8km/h 95% 0.00in /  0mm 42 W/m2
08:24 52.2 °F /  11.2 °C 50.7 °F /  10.4 °C 29.74in /  1007hPa ESE 1.4mph /  2.3km/h 5mph /  8km/h 95% 0.00in /  0mm 51 W/m2
08:29 52.2 °F /  11.2 °C 50.8 °F /  10.4 °C 29.74in /  1007hPa ESE 2.3mph /  3.7km/h 8mph /  12.9km/h 95% 0.00in /  0mm 54 W/m2
08:34 52.4 °F /  11.3 °C 51 °F /  10.6 °C 29.74in /  1007hPa SE 2.8mph /  4.5km/h 8mph /  12.9km/h 95% 0.00in /  0mm 53 W/m2
08:39 52.8 °F /  11.6 °C 51.3 °F /  10.7 °C 29.74in /  1007hPa SE 3.3mph /  5.3km/h 7mph /  11.3km/h 95% 0.00in /  0mm 49 W/m2
08:44 52.9 °F /  11.6 °C 51.4 °F /  10.8 °C 29.74in /  1007hPa SE 2.3mph /  3.7km/h 7mph /  11.3km/h 95% 0.00in /  0mm 49 W/m2
08:49 53.1 °F /  11.7 °C 51.6 °F /  10.9 °C 29.74in /  1007hPa ESE 2.5mph /  4km/h 6mph /  9.7km/h 95% 0.00in /  0mm 54 W/m2
08:54 53.1 °F /  11.7 °C 51.6 °F /  10.9 °C 29.74in /  1007hPa ESE 3.4mph /  5.5km/h 8mph /  12.9km/h 95% 0.00in /  0mm 56 W/m2
08:59 53.2 °F /  11.8 °C 51.8 °F /  11 °C 29.74in /  1007hPa ESE 2.5mph /  4km/h 9mph /  14.5km/h 95% 0.00in /  0mm 54 W/m2
09:04 53.2 °F /  11.8 °C 51.8 °F /  11 °C 29.74in /  1007hPa ESE 3.3mph /  5.3km/h 9mph /  14.5km/h 95% 0.00in /  0mm 54 W/m2
09:09 53.4 °F /  11.9 °C 51.8 °F /  11 °C 29.74in /  1007hPa East 2.5mph /  4km/h 8mph /  12.9km/h 94.2% 0.00in /  0mm 56 W/m2
09:14 53.4 °F /  11.9 °C 51.8 °F /  11 °C 29.74in /  1007hPa ENE 2.5mph /  4km/h 7mph /  11.3km/h 94% 0.00in /  0mm 60 W/m2
09:19 53.5 °F /  11.9 °C 51.9 °F /  11.1 °C 29.74in /  1007hPa East 2.3mph /  3.7km/h 7mph /  11.3km/h 94% 0.00in /  0mm 69 W/m2
09:24 53.5 °F /  11.9 °C 51.9 °F /  11.1 °C 29.74in /  1007hPa ESE 4mph /  6.4km/h 10mph /  16.1km/h 94% 0.00in /  0mm 81 W/m2
09:29 53.6 °F /  12 °C 52 °F /  11.1 °C 29.73in /  1006.7hPa East 1.6mph /  2.6km/h 9mph /  14.5km/h 94% 0.00in /  0mm 83 W/m2
09:34 53.7 °F /  12.1 °C 52.1 °F /  11.2 °C 29.73in /  1006.7hPa ESE 4.1mph /  6.6km/h 12mph /  19.3km/h 94% 0.00in /  0mm 84 W/m2
09:39 53.8 °F /  12.1 °C 52.2 °F /  11.2 °C 29.73in /  1006.7hPa ESE 1.9mph /  3.1km/h 11mph /  17.7km/h 94% 0.00in /  0mm 84 W/m2
09:44 53.8 °F /  12.1 °C 52.2 °F /  11.2 °C 29.73in /  1006.7hPa ESE 3.4mph /  5.5km/h 8mph /  12.9km/h 94% 0.00in /  0mm 104 W/m2
09:49 53.9 °F /  12.2 °C 52.3 °F /  11.3 °C 29.73in /  1006.7hPa ESE 1.5mph /  2.4km/h 7mph /  11.3km/h 94% 0.00in /  0mm 114 W/m2
09:54 54 °F /  12.2 °C 52.2 °F /  11.2 °C 29.72in /  1006.3hPa ESE 2.7mph /  4.3km/h 8mph /  12.9km/h 93.6% 0.00in /  0mm 114 W/m2
09:59 54 °F /  12.2 °C 52 °F /  11.1 °C 29.72in /  1006.3hPa SE 3.2mph /  5.1km/h 7mph /  11.3km/h 93.1% 0.00in /  0mm 90 W/m2
10:04 54 °F /  12.2 °C 52 °F /  11.1 °C 29.72in /  1006.3hPa ESE 4.1mph /  6.6km/h 12mph /  19.3km/h 93.1% 0.00in /  0mm 90 W/m2
10:09 53.9 °F /  12.2 °C 51.9 °F /  11.1 °C 29.72in /  1006.3hPa SE 4mph /  6.4km/h 11mph /  17.7km/h 93% 0.00in /  0mm 91 W/m2
10:14 54 °F /  12.2 °C 52 °F /  11.1 °C 29.72in /  1006.3hPa SE 4mph /  6.4km/h 8mph /  12.9km/h 93% 0.00in /  0mm 90 W/m2
10:19 54 °F /  12.2 °C 51.9 °F /  11.1 °C 29.72in /  1006.3hPa ESE 4.1mph /  6.6km/h 11mph /  17.7km/h 92.7% 0.00in /  0mm 97 W/m2
10:24 54 °F /  12.2 °C 51.6 °F /  10.9 °C 29.72in /  1006.3hPa SE 6.9mph /  11.1km/h 16mph /  25.7km/h 92% 0.00in /  0mm 118 W/m2
10:29 54 °F /  12.2 °C 51.5 °F /  10.8 °C 29.72in /  1006.3hPa SE 4.7mph /  7.6km/h 12mph /  19.3km/h 91.4% 0.00in /  0mm 118 W/m2
10:34 54.1 °F /  12.3 °C 51.5 °F /  10.8 °C 29.72in /  1006.3hPa SE 6mph /  9.7km/h 12mph /  19.3km/h 91% 0.01in /  0.25mm 100 W/m2
10:39 54.1 °F /  12.3 °C 51.3 °F /  10.7 °C 29.72in /  1006.3hPa SE 3mph /  4.8km/h 12mph /  19.3km/h 90.1% 0.01in /  0.25mm 77 W/m2
10:44 54.1 °F /  12.3 °C 51.1 °F /  10.6 °C 29.72in /  1006.3hPa SE 3.1mph /  5km/h 11mph /  17.7km/h 89.4% 0.01in /  0.25mm 79 W/m2
10:49 54.2 °F /  12.3 °C 51 °F /  10.6 °C 29.72in /  1006.3hPa ESE 2.9mph /  4.7km/h 7mph /  11.3km/h 89% 0.01in /  0.25mm 76 W/m2
10:54 54.1 °F /  12.3 °C 50.9 °F /  10.5 °C 29.72in /  1006.3hPa ESE 4.3mph /  6.9km/h 10mph /  16.1km/h 89% 0.01in /  0.25mm 77 W/m2
10:59 54.2 °F /  12.3 °C 51 °F /  10.6 °C 29.71in /  1006hPa ESE 2.8mph /  4.5km/h 8mph /  12.9km/h 89% 0.01in /  0.25mm 91 W/m2
11:04 54.2 °F /  12.3 °C 51 °F /  10.6 °C 29.71in /  1006hPa ESE 1.8mph /  2.9km/h 8mph /  12.9km/h 89% 0.01in /  0.25mm 105 W/m2
11:09 54.2 °F /  12.3 °C 51 °F /  10.6 °C 29.71in /  1006hPa East 2.4mph /  3.9km/h 8mph /  12.9km/h 89% 0.01in /  0.25mm 116 W/m2
11:14 54.1 °F /  12.3 °C 50.9 °F /  10.5 °C 29.70in /  1005.6hPa East 2.9mph /  4.7km/h 9mph /  14.5km/h 89% 0.01in /  0.25mm 114 W/m2
11:19 54.1 °F /  12.3 °C 50.9 °F /  10.5 °C 29.70in /  1005.6hPa ESE 2.2mph /  3.5km/h 6mph /  9.7km/h 89% 0.01in /  0.25mm 98 W/m2
11:24 54.1 °F /  12.3 °C 50.9 °F /  10.5 °C 29.70in /  1005.6hPa ESE 1.7mph /  2.7km/h 7mph /  11.3km/h 89% 0.01in /  0.25mm 81 W/m2
11:29 54 °F /  12.2 °C 50.7 °F /  10.4 °C 29.70in /  1005.6hPa ESE 4mph /  6.4km/h 9mph /  14.5km/h 89% 0.00in /  0mm 91 W/m2
11:34 53.8 °F /  12.1 °C 50.5 °F /  10.3 °C 29.70in /  1005.6hPa ESE 2.8mph /  4.5km/h 9mph /  14.5km/h 89% 0.00in /  0mm 104 W/m2
11:39 53.8 °F /  12.1 °C 50.5 °F /  10.3 °C 29.70in /  1005.6hPa ESE 4.6mph /  7.4km/h 13mph /  20.9km/h 89% 0.00in /  0mm 116 W/m2
11:44 53.8 °F /  12.1 °C 50.9 °F /  10.5 °C 29.70in /  1005.6hPa ESE 2.2mph /  3.5km/h 7mph /  11.3km/h 89.8% 0.00in /  0mm 121 W/m2
11:49 54 °F /  12.2 °C 51.1 °F /  10.6 °C 29.70in /  1005.6hPa ESE 4.6mph /  7.4km/h 10mph /  16.1km/h 90% 0.00in /  0mm 130 W/m2
11:54 54 °F /  12.2 °C 51.1 °F /  10.6 °C 29.69in /  1005.3hPa ESE 5.3mph /  8.5km/h 10mph /  16.1km/h 90% 0.00in /  0mm 132 W/m2
11:59 54 °F /  12.2 °C 51.1 °F /  10.6 °C 29.69in /  1005.3hPa ESE 5.1mph /  8.2km/h 11mph /  17.7km/h 90% 0.00in /  0mm 120 W/m2
12:04 54 °F /  12.2 °C 51.1 °F /  10.6 °C 29.69in /  1005.3hPa ESE 3.1mph /  5km/h 9mph /  14.5km/h 90% 0.00in /  0mm 120 W/m2
12:09 54.1 °F /  12.3 °C 51.2 °F /  10.7 °C 29.68in /  1005hPa ESE 2.2mph /  3.5km/h 8mph /  12.9km/h 90% 0.00in /  0mm 127 W/m2
12:14 54.1 °F /  12.3 °C 51.3 °F /  10.7 °C 29.68in /  1005hPa East 2.3mph /  3.7km/h 8mph /  12.9km/h 90% 0.01in /  0.25mm 121 W/m2
12:19 54.1 °F /  12.3 °C 51.3 °F /  10.7 °C 29.68in /  1005hPa ESE 3.4mph /  5.5km/h 10mph /  16.1km/h 90% 0.01in /  0.25mm 132 W/m2
12:24 54.1 °F /  12.3 °C 51.3 °F /  10.7 °C 29.68in /  1005hPa East 3.1mph /  5km/h 10mph /  16.1km/h 90% 0.01in /  0.25mm 123 W/m2
12:29 54.1 °F /  12.3 °C 51.5 °F /  10.8 °C 29.68in /  1005hPa East 3.9mph /  6.3km/h 9mph /  14.5km/h 90.9% 0.01in /  0.25mm 90 W/m2
12:34 54.1 °F /  12.3 °C 51.5 °F /  10.8 °C 29.67in /  1004.6hPa East 3.1mph /  5km/h 9mph /  14.5km/h 91% 0.01in /  0.25mm 83 W/m2
12:39 54 °F /  12.2 °C 51.5 °F /  10.8 °C 29.67in /  1004.6hPa East 2.9mph /  4.7km/h 8mph /  12.9km/h 91% 0.01in /  0.25mm 95 W/m2
12:44 54 °F /  12.2 °C 51.4 °F /  10.8 °C 29.67in /  1004.6hPa East 4mph /  6.4km/h 12mph /  19.3km/h 91% 0.02in /  0.51mm 95 W/m2
12:49 54 °F /  12.2 °C 51.4 °F /  10.8 °C 29.67in /  1004.6hPa ENE 3.3mph /  5.3km/h 10mph /  16.1km/h 91% 0.02in /  0.51mm 109 W/m2
12:54 54 °F /  12.2 °C 51.4 °F /  10.8 °C 29.67in /  1004.6hPa East 3.1mph /  5km/h 9mph /  14.5km/h 91% 0.02in /  0.51mm 120 W/m2
12:59 53.9 °F /  12.2 °C 51.4 °F /  10.8 °C 29.66in /  1004.3hPa East 3.9mph /  6.3km/h 10mph /  16.1km/h 91% 0.03in /  0.76mm 111 W/m2
13:04 53.8 °F /  12.1 °C 51.3 °F /  10.7 °C 29.66in /  1004.3hPa East 3.9mph /  6.3km/h 10mph /  16.1km/h 91.2% 0.03in /  0.76mm 93 W/m2
13:09 53.6 °F /  12 °C 51.3 °F /  10.7 °C 29.66in /  1004.3hPa East 3.4mph /  5.5km/h 10mph /  16.1km/h 92% 0.03in /  0.76mm 86 W/m2
13:14 53.4 °F /  11.9 °C 51.1 °F /  10.6 °C 29.66in /  1004.3hPa East 2.3mph /  3.7km/h 8mph /  12.9km/h 92% 0.03in /  0.76mm 97 W/m2
13:19 53.4 °F /  11.9 °C 51.1 °F /  10.6 °C 29.66in /  1004.3hPa ENE 4mph /  6.4km/h 9mph /  14.5km/h 92% 0.03in /  0.76mm 120 W/m2
13:24 53.4 °F /  11.9 °C 51.1 °F /  10.6 °C 29.65in /  1003.9hPa East 3.7mph /  6km/h 9mph /  14.5km/h 92% 0.03in /  0.76mm 123 W/m2
13:29 53.4 °F /  11.9 °C 51.1 °F /  10.6 °C 29.65in /  1003.9hPa East 3.5mph /  5.6km/h 8mph /  12.9km/h 92% 0.04in /  1.02mm 102 W/m2
13:34 53.4 °F /  11.9 °C 51.1 °F /  10.6 °C 29.65in /  1003.9hPa ENE 1.9mph /  3.1km/h 9mph /  14.5km/h 92% 0.04in /  1.02mm 95 W/m2
13:39 53.3 °F /  11.8 °C 51 °F /  10.6 °C 29.65in /  1003.9hPa East 2.5mph /  4km/h 9mph /  14.5km/h 92% 0.04in /  1.02mm 76 W/m2
13:44 53.2 °F /  11.8 °C 51.2 °F /  10.7 °C 29.65in /  1003.9hPa ESE 3.1mph /  5km/h 9mph /  14.5km/h 92.7% 0.03in /  0.76mm 81 W/m2
13:49 53.2 °F /  11.8 °C 51.3 °F /  10.7 °C 29.65in /  1003.9hPa East 0.8mph /  1.3km/h 7mph /  11.3km/h 93% 0.04in /  1.02mm 81 W/m2
13:54 53.3 °F /  11.8 °C 51.4 °F /  10.8 °C 29.65in /  1003.9hPa East 2.4mph /  3.9km/h 7mph /  11.3km/h 93% 0.04in /  1.02mm 79 W/m2
13:59 53.3 °F /  11.8 °C 51.3 °F /  10.7 °C 29.64in /  1003.6hPa East 3.2mph /  5.1km/h 8mph /  12.9km/h 93% 0.04in /  1.02mm 84 W/m2
14:04 53.2 °F /  11.8 °C 51.3 °F /  10.7 °C 29.64in /  1003.6hPa ENE 0.8mph /  1.3km/h 7mph /  11.3km/h 93% 0.05in /  1.27mm 95 W/m2
14:09 53.3 °F /  11.8 °C 51.4 °F /  10.8 °C 29.64in /  1003.6hPa ENE 0.5mph /  0.8km/h 7mph /  11.3km/h 93% 0.06in /  1.52mm 95 W/m2
14:14 53.4 °F /  11.9 °C 51.4 °F /  10.8 °C 29.63in /  1003.3hPa ENE 3.1mph /  5km/h 10mph /  16.1km/h 93% 0.06in /  1.52mm 83 W/m2
14:19 53.4 °F /  11.9 °C 51.4 °F /  10.8 °C 29.63in /  1003.3hPa East 2.3mph /  3.7km/h 10mph /  16.1km/h 93% 0.06in /  1.52mm 67 W/m2
14:24 53.2 °F /  11.8 °C 51.3 °F /  10.7 °C 29.62in /  1002.9hPa ENE 3.6mph /  5.8km/h 9mph /  14.5km/h 93% 0.06in /  1.52mm 98 W/m2
14:29 53.2 °F /  11.8 °C 51.3 °F /  10.7 °C 29.62in /  1002.9hPa ENE 4.5mph /  7.2km/h 10mph /  16.1km/h 93% 0.07in /  1.78mm 142 W/m2
14:34 53.2 °F /  11.8 °C 51.2 °F /  10.7 °C 29.62in /  1002.9hPa ESE 2mph /  3.2km/h 7mph /  11.3km/h 93% 0.08in /  2.03mm 178 W/m2
14:39 53.2 °F /  11.8 °C 51.3 °F /  10.7 °C 29.61in /  1002.6hPa East 2.9mph /  4.7km/h 8mph /  12.9km/h 93% 0.08in /  2.03mm 178 W/m2
14:44 53.2 °F /  11.8 °C 51.4 °F /  10.8 °C 29.61in /  1002.6hPa East 1.2mph /  1.9km/h 8mph /  12.9km/h 93.2% 0.08in /  2.03mm 155 W/m2
14:49 53.4 °F /  11.9 °C 51.8 °F /  11 °C 29.61in /  1002.6hPa ENE 1.7mph /  2.7km/h 5mph /  8km/h 94% 0.07in /  1.78mm 116 W/m2
14:54 53.4 °F /  11.9 °C 51.8 °F /  11 °C 29.61in /  1002.6hPa NE 2.8mph /  4.5km/h 7mph /  11.3km/h 94% 0.07in /  1.78mm 135 W/m2
14:59 53.4 °F /  11.9 °C 51.8 °F /  11 °C 29.60in /  1002.3hPa East 3.9mph /  6.3km/h 9mph /  14.5km/h 94% 0.06in /  1.52mm 135 W/m2
15:04 53.5 °F /  11.9 °C 51.9 °F /  11.1 °C 29.60in /  1002.3hPa NE 2.2mph /  3.5km/h 7mph /  11.3km/h 94% 0.06in /  1.52mm 135 W/m2
15:09 53.7 °F /  12.1 °C 52.1 °F /  11.2 °C 29.60in /  1002.3hPa East 3.5mph /  5.6km/h 11mph /  17.7km/h 94% 0.04in /  1.02mm 144 W/m2
15:14 53.8 °F /  12.1 °C 52.2 °F /  11.2 °C 29.59in /  1001.9hPa NE 3.3mph /  5.3km/h 11mph /  17.7km/h 94% 0.03in /  0.76mm 144 W/m2
15:19 53.8 °F /  12.1 °C 52.2 °F /  11.2 °C 29.59in /  1001.9hPa ENE 4.5mph /  7.2km/h 11mph /  17.7km/h 94% 0.02in /  0.51mm 127 W/m2
15:24 53.7 °F /  12.1 °C 52.1 °F /  11.2 °C 29.59in /  1001.9hPa NE 4.4mph /  7.1km/h 14mph /  22.5km/h 94% 0.02in /  0.51mm 118 W/m2
15:29 53.7 °F /  12.1 °C 52.1 °F /  11.2 °C 29.59in /  1001.9hPa ENE 5.7mph /  9.2km/h 12mph /  19.3km/h 94% 0.02in /  0.51mm 98 W/m2
15:34 53.6 °F /  12 °C 52 °F /  11.1 °C 29.58in /  1001.6hPa East 3.7mph /  6km/h 13mph /  20.9km/h 94% 0.01in /  0.25mm 93 W/m2
15:39 53.6 °F /  12 °C 52 °F /  11.1 °C 29.58in /  1001.6hPa ENE 2.8mph /  4.5km/h 10mph /  16.1km/h 94% 0.00in /  0mm 83 W/m2
15:44 53.6 °F /  12 °C 52 °F /  11.1 °C 29.58in /  1001.6hPa ENE 2.7mph /  4.3km/h 10mph /  16.1km/h 94% 0.00in /  0mm 65 W/m2
15:49 53.6 °F /  12 °C 52 °F /  11.1 °C 29.58in /  1001.6hPa East 4.8mph /  7.7km/h 11mph /  17.7km/h 94% 0.00in /  0mm 83 W/m2
15:54 53.6 °F /  12 °C 52 °F /  11.1 °C 29.57in /  1001.2hPa ENE 3.5mph /  5.6km/h 12mph /  19.3km/h 94% 0.00in /  0mm 93 W/m2
15:59 53.5 °F /  11.9 °C 51.9 °F /  11.1 °C 29.57in /  1001.2hPa NE 5.2mph /  8.4km/h 13mph /  20.9km/h 94% 0.00in /  0mm 100 W/m2
16:04 53.5 °F /  11.9 °C 51.9 °F /  11.1 °C 29.57in /  1001.2hPa ENE 4.8mph /  7.7km/h 13mph /  20.9km/h 94% 0.01in /  0.25mm 100 W/m2
16:09 53.5 °F /  11.9 °C 51.9 °F /  11.1 °C 29.57in /  1001.2hPa NE 4.5mph /  7.2km/h 12mph /  19.3km/h 94% 0.01in /  0.25mm 86 W/m2
16:14 53.4 °F /  11.9 °C 51.8 °F /  11 °C 29.57in /  1001.2hPa ENE 5.7mph /  9.2km/h 15mph /  24.1km/h 94% 0.01in /  0.25mm 88 W/m2
16:19 53.4 °F /  11.9 °C 51.8 °F /  11 °C 29.57in /  1001.2hPa ENE 4.9mph /  7.9km/h 9mph /  14.5km/h 94% 0.01in /  0.25mm 70 W/m2
16:24 53.4 °F /  11.9 °C 51.8 °F /  11 °C 29.57in /  1001.2hPa ENE 4.2mph /  6.8km/h 9mph /  14.5km/h 94% 0.01in /  0.25mm 47 W/m2
16:29 53.3 °F /  11.8 °C 51.7 °F /  10.9 °C 29.57in /  1001.2hPa NE 3.4mph /  5.5km/h 9mph /  14.5km/h 94% 0.01in /  0.25mm 67 W/m2
16:34 53.2 °F /  11.8 °C 51.6 °F /  10.9 °C 29.57in /  1001.2hPa ENE 5mph /  8km/h 14mph /  22.5km/h 94% 0.01in /  0.25mm 67 W/m2
16:39 53.3 °F /  11.8 °C 51.7 °F /  10.9 °C 29.57in /  1001.2hPa East 1.7mph /  2.7km/h 14mph /  22.5km/h 94% 0.01in /  0.25mm 63 W/m2
16:44 53.3 °F /  11.8 °C 51.7 °F /  10.9 °C 29.57in /  1001.2hPa ENE 2.4mph /  3.9km/h 7mph /  11.3km/h 94% 0.02in /  0.51mm 51 W/m2
16:49 53.2 °F /  11.8 °C 51.6 °F /  10.9 °C 29.57in /  1001.2hPa NE 6.1mph /  9.8km/h 14mph /  22.5km/h 94% 0.02in /  0.51mm 53 W/m2
16:54 53.2 °F /  11.8 °C 51.6 °F /  10.9 °C 29.57in /  1001.2hPa NE 4.7mph /  7.6km/h 12mph /  19.3km/h 94% 0.02in /  0.51mm 49 W/m2
16:59 53.1 °F /  11.7 °C 51.4 °F /  10.8 °C 29.57in /  1001.2hPa ENE 5.1mph /  8.2km/h 14mph /  22.5km/h 94% 0.02in /  0.51mm 42 W/m2
17:04 53.1 °F /  11.7 °C 51.4 °F /  10.8 °C 29.57in /  1001.2hPa ENE 3.1mph /  5km/h 9mph /  14.5km/h 94% 0.01in /  0.25mm 30 W/m2
17:09 53.1 °F /  11.7 °C 51.4 °F /  10.8 °C 29.57in /  1001.2hPa NE 5.2mph /  8.4km/h 15mph /  24.1km/h 94% 0.01in /  0.25mm 21 W/m2
17:14 53 °F /  11.7 °C 51.3 °F /  10.7 °C 29.57in /  1001.2hPa NE 1.7mph /  2.7km/h 8mph /  12.9km/h 94% 0.02in /  0.51mm 21 W/m2
17:19 52.9 °F /  11.6 °C 51.3 °F /  10.7 °C 29.57in /  1001.2hPa ENE 3.6mph /  5.8km/h 10mph /  16.1km/h 94% 0.02in /  0.51mm 19 W/m2
17:24 52.9 °F /  11.6 °C 51.3 °F /  10.7 °C 29.57in /  1001.2hPa NE 3.2mph /  5.1km/h 8mph /  12.9km/h 94% 0.03in /  0.76mm 16 W/m2
17:29 52.9 °F /  11.6 °C 51.3 °F /  10.7 °C 29.56in /  1000.9hPa NE 3.6mph /  5.8km/h 9mph /  14.5km/h 94% 0.03in /  0.76mm 16 W/m2
17:34 52.8 °F /  11.6 °C 51.2 °F /  10.7 °C 29.56in /  1000.9hPa ENE 2.8mph /  4.5km/h 9mph /  14.5km/h 94% 0.03in /  0.76mm 12 W/m2
17:39 52.7 °F /  11.5 °C 51.1 °F /  10.6 °C 29.56in /  1000.9hPa NNE 4.8mph /  7.7km/h 12mph /  19.3km/h 94% 0.03in /  0.76mm 11 W/m2
17:44 52.7 °F /  11.5 °C 51.1 °F /  10.6 °C 29.56in /  1000.9hPa ENE 1.7mph /  2.7km/h 12mph /  19.3km/h 94% 0.03in /  0.76mm 9 W/m2
17:49 52.5 °F /  11.4 °C 50.9 °F /  10.5 °C 29.56in /  1000.9hPa NE 4.4mph /  7.1km/h 10mph /  16.1km/h 94% 0.02in /  0.51mm 9 W/m2
17:54 52.5 °F /  11.4 °C 50.9 °F /  10.5 °C 29.55in /  1000.6hPa NE 3.8mph /  6.1km/h 7mph /  11.3km/h 94% 0.03in /  0.76mm 7 W/m2
17:59 52.5 °F /  11.4 °C 50.9 °F /  10.5 °C 29.55in /  1000.6hPa NE 3.1mph /  5km/h 9mph /  14.5km/h 94% 0.03in /  0.76mm 5 W/m2
18:04 52.5 °F /  11.4 °C 50.9 °F /  10.5 °C 29.55in /  1000.6hPa NE 3.3mph /  5.3km/h 9mph /  14.5km/h 94% 0.03in /  0.76mm 5 W/m2
18:09 52.4 °F /  11.3 °C 50.8 °F /  10.4 °C 29.55in /  1000.6hPa NE 2.3mph /  3.7km/h 7mph /  11.3km/h 94% 0.03in /  0.76mm 0 W/m2
18:14 52.3 °F /  11.3 °C 50.7 °F /  10.4 °C 29.54in /  1000.2hPa NE 4.4mph /  7.1km/h 11mph /  17.7km/h 94% 0.03in /  0.76mm 0 W/m2
18:19 52.3 °F /  11.3 °C 50.7 °F /  10.4 °C 29.54in /  1000.2hPa NE 5.6mph /  9km/h 13mph /  20.9km/h 94% 0.02in /  0.51mm 0 W/m2
18:24 52.3 °F /  11.3 °C 50.7 °F /  10.4 °C 29.54in /  1000.2hPa NE 4.1mph /  6.6km/h 9mph /  14.5km/h 94% 0.02in /  0.51mm 0 W/m2
18:29 52.3 °F /  11.3 °C 50.7 °F /  10.4 °C 29.54in /  1000.2hPa NE 5.3mph /  8.5km/h 10mph /  16.1km/h 94% 0.01in /  0.25mm 0 W/m2
18:34 52.3 °F /  11.3 °C 50.7 °F /  10.4 °C 29.55in /  1000.6hPa ENE 4.7mph /  7.6km/h 12mph /  19.3km/h 94% 0.01in /  0.25mm 0 W/m2
18:39 52.3 °F /  11.3 °C 50.7 °F /  10.4 °C 29.56in /  1000.9hPa NNE 3.2mph /  5.1km/h 8mph /  12.9km/h 94% 0.01in /  0.25mm 0 W/m2
18:44 52.2 °F /  11.2 °C 50.5 °F /  10.3 °C 29.56in /  1000.9hPa NNE 4.2mph /  6.8km/h 9mph /  14.5km/h 94% 0.01in /  0.25mm 0 W/m2
18:49 52.2 °F /  11.2 °C 50.5 °F /  10.3 °C 29.56in /  1000.9hPa NE 1.8mph /  2.9km/h 7mph /  11.3km/h 94% 0.01in /  0.25mm 0 W/m2
18:54 52.2 °F /  11.2 °C 50.5 °F /  10.3 °C 29.56in /  1000.9hPa NNE 2.7mph /  4.3km/h 8mph /  12.9km/h 94% 0.01in /  0.25mm 0 W/m2
18:59 52.2 °F /  11.2 °C 50.5 °F /  10.3 °C 29.56in /  1000.9hPa NNE 2.9mph /  4.7km/h 6mph /  9.7km/h 94% 0.00in /  0mm 0 W/m2
19:04 52.1 °F /  11.2 °C 50.4 °F /  10.2 °C 29.56in /  1000.9hPa NNE 3.8mph /  6.1km/h 10mph /  16.1km/h 94% 0.00in /  0mm 0 W/m2
19:09 52 °F /  11.1 °C 50.4 °F /  10.2 °C 29.57in /  1001.2hPa NNE 2.6mph /  4.2km/h 6mph /  9.7km/h 94% 0.00in /  0mm 0 W/m2
19:14 52 °F /  11.1 °C 50.4 °F /  10.2 °C 29.57in /  1001.2hPa North 2.4mph /  3.9km/h 5mph /  8km/h 94% 0.00in /  0mm 0 W/m2
19:19 52 °F /  11.1 °C 50.4 °F /  10.2 °C 29.57in /  1001.2hPa NE 3.8mph /  6.1km/h 9mph /  14.5km/h 94% 0.00in /  0mm 0 W/m2
19:24 52 °F /  11.1 °C 50.4 °F /  10.2 °C 29.57in /  1001.2hPa NNE 1.7mph /  2.7km/h 6mph /  9.7km/h 94% 0.01in /  0.25mm 0 W/m2
19:29 52 °F /  11.1 °C 50.4 °F /  10.2 °C 29.57in /  1001.2hPa North 1.3mph /  2.1km/h 6mph /  9.7km/h 94% 0.01in /  0.25mm 0 W/m2
19:34 52 °F /  11.1 °C 50.4 °F /  10.2 °C 29.57in /  1001.2hPa North 0.3mph /  0.5km/h 3mph /  4.8km/h 94% 0.01in /  0.25mm 0 W/m2
19:39 52 °F /  11.1 °C 50.4 °F /  10.2 °C 29.57in /  1001.2hPa North 0.7mph /  1.1km/h 3mph /  4.8km/h 94% 0.01in /  0.25mm 0 W/m2
19:44 52 °F /  11.1 °C 50.4 °F /  10.2 °C 29.57in /  1001.2hPa North 0.4mph /  0.6km/h 3mph /  4.8km/h 94% 0.01in /  0.25mm 0 W/m2
19:49 52 °F /  11.1 °C 50.4 °F /  10.2 °C 29.57in /  1001.2hPa North 1.2mph /  1.9km/h 4mph /  6.4km/h 94% 0.02in /  0.51mm 0 W/m2
19:54 52 °F /  11.1 °C 50.4 °F /  10.2 °C 29.57in /  1001.2hPa North 0.4mph /  0.6km/h 4mph /  6.4km/h 94% 0.02in /  0.51mm 0 W/m2
19:59 52 °F /  11.1 °C 50.4 °F /  10.2 °C 29.56in /  1000.9hPa North 1.2mph /  1.9km/h 3mph /  4.8km/h 94% 0.03in /  0.76mm 0 W/m2
20:04 52 °F /  11.1 °C 50.4 °F /  10.2 °C 29.57in /  1001.2hPa NNW 1.8mph /  2.9km/h 4mph /  6.4km/h 94% 0.03in /  0.76mm 0 W/m2
20:09 52 °F /  11.1 °C 50.4 °F /  10.2 °C 29.57in /  1001.2hPa NW 2.9mph /  4.7km/h 6mph /  9.7km/h 94% 0.04in /  1.02mm 0 W/m2
20:14 51.7 °F /  10.9 °C 50.1 °F /  10.1 °C 29.57in /  1001.2hPa WNW 3.4mph /  5.5km/h 7mph /  11.3km/h 94% 0.05in /  1.27mm 0 W/m2
20:19 51.5 °F /  10.8 °C 49.9 °F /  9.9 °C 29.57in /  1001.2hPa West 2.5mph /  4km/h 7mph /  11.3km/h 94% 0.05in /  1.27mm 0 W/m2
20:24 51.4 °F /  10.8 °C 49.8 °F /  9.9 °C 29.57in /  1001.2hPa West 3mph /  4.8km/h 6mph /  9.7km/h 94% 0.05in /  1.27mm 0 W/m2
20:29 51.4 °F /  10.8 °C 49.8 °F /  9.9 °C 29.57in /  1001.2hPa West 2.2mph /  3.5km/h 6mph /  9.7km/h 94% 0.05in /  1.27mm 0 W/m2
20:34 51.3 °F /  10.7 °C 49.6 °F /  9.8 °C 29.57in /  1001.2hPa WNW 3.9mph /  6.3km/h 7mph /  11.3km/h 94% 0.05in /  1.27mm 0 W/m2
20:39 51.2 °F /  10.7 °C 49.6 °F /  9.8 °C 29.56in /  1000.9hPa WNW 3.1mph /  5km/h 6mph /  9.7km/h 94.2% 0.05in /  1.27mm 0 W/m2
20:44 51.2 °F /  10.7 °C 49.6 °F /  9.8 °C 29.56in /  1000.9hPa WNW 2.5mph /  4km/h 7mph /  11.3km/h 95% 0.05in /  1.27mm 0 W/m2
20:49 51.1 °F /  10.6 °C 49.6 °F /  9.8 °C 29.56in /  1000.9hPa WNW 2.3mph /  3.7km/h 6mph /  9.7km/h 95% 0.04in /  1.02mm 0 W/m2
20:54 51.1 °F /  10.6 °C 49.6 °F /  9.8 °C 29.57in /  1001.2hPa WNW 3.8mph /  6.1km/h 8mph /  12.9km/h 95% 0.03in /  0.76mm 0 W/m2
20:59 51 °F /  10.6 °C 49.6 °F /  9.8 °C 29.57in /  1001.2hPa WNW 2.3mph /  3.7km/h 7mph /  11.3km/h 95% 0.02in /  0.51mm 0 W/m2
21:04 51 °F /  10.6 °C 49.6 °F /  9.8 °C 29.56in /  1000.9hPa WNW 3.7mph /  6km/h 7mph /  11.3km/h 95% 0.02in /  0.51mm 0 W/m2
21:09 51.1 °F /  10.6 °C 49.6 °F /  9.8 °C 29.57in /  1001.2hPa WNW 1.3mph /  2.1km/h 7mph /  11.3km/h 95% 0.02in /  0.51mm 0 W/m2
21:14 51 °F /  10.6 °C 49.5 °F /  9.7 °C 29.57in /  1001.2hPa WNW 2.4mph /  3.9km/h 6mph /  9.7km/h 95% 0.02in /  0.51mm 0 W/m2
21:19 50.8 °F /  10.4 °C 49.4 °F /  9.7 °C 29.57in /  1001.2hPa NW 4.3mph /  6.9km/h 8mph /  12.9km/h 95% 0.01in /  0.25mm 0 W/m2
21:24 50.7 °F /  10.4 °C 49.3 °F /  9.6 °C 29.57in /  1001.2hPa NW 3.9mph /  6.3km/h 8mph /  12.9km/h 95% 0.01in /  0.25mm 0 W/m2
21:29 50.7 °F /  10.4 °C 49.3 °F /  9.6 °C 29.57in /  1001.2hPa NW 3.6mph /  5.8km/h 9mph /  14.5km/h 95% 0.00in /  0mm 0 W/m2
21:34 50.6 °F /  10.3 °C 49.2 °F /  9.6 °C 29.57in /  1001.2hPa NW 3mph /  4.8km/h 7mph /  11.3km/h 95% 0.00in /  0mm 0 W/m2
21:39 50.6 °F /  10.3 °C 49.2 °F /  9.6 °C 29.57in /  1001.2hPa NNW 1.8mph /  2.9km/h 6mph /  9.7km/h 95% 0.00in /  0mm 0 W/m2
21:44 50.6 °F /  10.3 °C 49.2 °F /  9.6 °C 29.57in /  1001.2hPa WNW 1.9mph /  3.1km/h 7mph /  11.3km/h 95% 0.00in /  0mm 0 W/m2
21:49 50.7 °F /  10.4 °C 49.3 °F /  9.6 °C 29.57in /  1001.2hPa WNW 3.2mph /  5.1km/h 7mph /  11.3km/h 95% 0.00in /  0mm 0 W/m2
21:54 50.7 °F /  10.4 °C 49.3 °F /  9.6 °C 29.57in /  1001.2hPa WNW 1.7mph /  2.7km/h 7mph /  11.3km/h 95% 0.00in /  0mm 0 W/m2
21:59 50.7 °F /  10.4 °C 49.3 °F /  9.6 °C 29.57in /  1001.2hPa WNW 1.7mph /  2.7km/h 4mph /  6.4km/h 95% 0.00in /  0mm 0 W/m2
22:04 50.7 °F /  10.4 °C 49.3 °F /  9.6 °C 29.57in /  1001.2hPa WNW 2.9mph /  4.7km/h 5mph /  8km/h 95% 0.00in /  0mm 0 W/m2
22:09 50.7 °F /  10.4 °C 49.3 °F /  9.6 °C 29.57in /  1001.2hPa WNW 1.9mph /  3.1km/h 5mph /  8km/h 95% 0.00in /  0mm 0 W/m2
22:14 50.7 °F /  10.4 °C 49.3 °F /  9.6 °C 29.58in /  1001.6hPa WNW 1.3mph /  2.1km/h 3mph /  4.8km/h 95% 0.00in /  0mm 0 W/m2
22:19 50.7 °F /  10.4 °C 49.3 °F /  9.6 °C 29.58in /  1001.6hPa WNW 1.7mph /  2.7km/h 4mph /  6.4km/h 95% 0.00in /  0mm 0 W/m2
22:24 50.7 °F /  10.4 °C 49.3 °F /  9.6 °C 29.58in /  1001.6hPa WNW 2.1mph /  3.4km/h 5mph /  8km/h 95% 0.00in /  0mm 0 W/m2
22:29 50.7 °F /  10.4 °C 49.3 °F /  9.6 °C 29.58in /  1001.6hPa WNW 2.9mph /  4.7km/h 6mph /  9.7km/h 95% 0.00in /  0mm 0 W/m2
22:34 50.7 °F /  10.4 °C 49.3 °F /  9.6 °C 29.59in /  1001.9hPa WNW 3.8mph /  6.1km/h 7mph /  11.3km/h 95% 0.00in /  0mm 0 W/m2
22:39 50.7 °F /  10.4 °C 49.3 °F /  9.6 °C 29.59in /  1001.9hPa WNW 3.1mph /  5km/h 7mph /  11.3km/h 95% 0.00in /  0mm 0 W/m2
22:44 50.7 °F /  10.4 °C 49.3 °F /  9.6 °C 29.58in /  1001.6hPa WNW 2.6mph /  4.2km/h 6mph /  9.7km/h 95% 0.00in /  0mm 0 W/m2
22:49 50.7 °F /  10.4 °C 49.3 °F /  9.6 °C 29.58in /  1001.6hPa WNW 2.6mph /  4.2km/h 6mph /  9.7km/h 95% 0.00in /  0mm 0 W/m2
22:54 50.7 °F /  10.4 °C 49.3 °F /  9.6 °C 29.58in /  1001.6hPa WNW 0.9mph /  1.4km/h 5mph /  8km/h 95% 0.00in /  0mm 0 W/m2
22:59 50.7 °F /  10.4 °C 49.3 °F /  9.6 °C 29.57in /  1001.2hPa WNW 1.3mph /  2.1km/h 4mph /  6.4km/h 95% 0.00in /  0mm 0 W/m2
23:04 50.7 °F /  10.4 °C 49.3 °F /  9.6 °C 29.57in /  1001.2hPa WNW 0.6mph /  1km/h 4mph /  6.4km/h 95% 0.00in /  0mm 0 W/m2
23:09 50.7 °F /  10.4 °C 49.3 °F /  9.6 °C 29.57in /  1001.2hPa WNW 0.3mph /  0.5km/h 3mph /  4.8km/h 95% 0.00in /  0mm 0 W/m2
23:14 50.7 °F /  10.4 °C 49.3 °F /  9.6 °C 29.57in /  1001.2hPa WNW 1.2mph /  1.9km/h 4mph /  6.4km/h 95% 0.00in /  0mm 0 W/m2
23:19 50.7 °F /  10.4 °C 49.3 °F /  9.6 °C 29.57in /  1001.2hPa WNW 1.2mph /  1.9km/h 4mph /  6.4km/h 95% 0.00in /  0mm 0 W/m2
23:24 50.8 °F /  10.4 °C 49.4 °F /  9.7 °C 29.58in /  1001.6hPa WNW 1.8mph /  2.9km/h 4mph /  6.4km/h 95% 0.00in /  0mm 0 W/m2
23:29 50.9 °F /  10.5 °C 49.5 °F /  9.7 °C 29.58in /  1001.6hPa WNW 2.9mph /  4.7km/h 5mph /  8km/h 95% 0.00in /  0mm 0 W/m2
23:34 50.9 °F /  10.5 °C 49.5 °F /  9.7 °C 29.58in /  1001.6hPa WNW 1.6mph /  2.6km/h 4mph /  6.4km/h 95% 0.00in /  0mm 0 W/m2
23:39 50.7 °F /  10.4 °C 49.3 °F /  9.6 °C 29.58in /  1001.6hPa WNW 1.4mph /  2.3km/h 4mph /  6.4km/h 95% 0.00in /  0mm 0 W/m2
23:44 50.7 °F /  10.4 °C 49.3 °F /  9.6 °C 29.59in /  1001.9hPa WNW 1.7mph /  2.7km/h 3mph /  4.8km/h 95% 0.00in /  0mm 0 W/m2
23:49 50.7 °F /  10.4 °C 49.3 °F /  9.6 °C 29.59in /  1001.9hPa WNW 1.4mph /  2.3km/h 4mph /  6.4km/h 95% 0.00in /  0mm 0 W/m2
23:54 50.7 °F /  10.4 °C 49.3 °F /  9.6 °C 29.59in /  1001.9hPa WNW 0.7mph /  1.1km/h 3mph /  4.8km/h 95% 0.00in /  0mm 0 W/m2
23:59 50.7 °F /  10.4 °C 49.3 °F /  9.6 °C 29.59in /  1001.9hPa WNW 1mph /  1.6km/h 4mph /  6.4km/h 95% 0.00in /  0mm 0 W/m2
Bath Spa Weather
Compliments of Weather Underground - 2 mb